createdAt,value
2022-12-17T00:01:00.333Z,71.62
2022-12-17T00:03:29.175Z,71.67
2022-12-17T00:05:57.474Z,71.94
2022-12-17T00:08:25.780Z,71.78
2022-12-17T00:10:53.986Z,72.92
2022-12-17T00:13:23.273Z,72.85
2022-12-17T00:15:53.123Z,72.16
2022-12-17T00:18:22.607Z,72.21
2022-12-17T00:21:00.547Z,71.51
2022-12-17T00:23:28.558Z,71.57
2022-12-17T00:25:57.090Z,71.64
2022-12-17T00:28:25.020Z,72.06
2022-12-17T00:30:53.719Z,72.34
2022-12-17T00:33:21.888Z,72.33
2022-12-17T00:35:54.984Z,72.53
2022-12-17T00:38:24.453Z,73.00
2022-12-17T00:40:53.592Z,72.14
2022-12-17T00:43:22.093Z,73.27
2022-12-17T00:45:51.010Z,72.31
2022-12-17T00:48:20.436Z,72.17
2022-12-17T00:50:49.015Z,72.01
2022-12-17T00:53:17.217Z,72.51
2022-12-17T00:55:45.576Z,72.64
2022-12-17T00:58:13.823Z,73.00
2022-12-17T01:00:42.953Z,73.52
2022-12-17T01:03:13.524Z,73.27
2022-12-17T01:05:41.721Z,73.44
2022-12-17T01:08:13.132Z,73.57
2022-12-17T01:10:41.804Z,73.25
2022-12-17T01:13:16.833Z,73.14
2022-12-17T01:15:45.327Z,73.43
2022-12-17T01:18:20.710Z,73.15
2022-12-17T01:20:48.944Z,73.43
2022-12-17T01:23:17.002Z,74.27
2022-12-17T01:25:56.631Z,74.15
2022-12-17T01:28:26.301Z,73.69
2022-12-17T01:30:57.230Z,73.57
2022-12-17T01:33:25.329Z,73.81
2022-12-17T01:35:58.302Z,74.39
2022-12-17T01:38:26.293Z,73.52
2022-12-17T01:40:54.278Z,73.69
2022-12-17T01:43:37.549Z,73.75
2022-12-17T01:46:06.077Z,73.48
2022-12-17T01:48:41.718Z,74.67
2022-12-17T01:51:09.833Z,74.37
2022-12-17T01:53:46.799Z,73.96
2022-12-17T01:56:15.922Z,73.76
2022-12-17T01:58:44.963Z,73.78
2022-12-17T02:01:13.269Z,73.53
2022-12-17T02:03:41.632Z,74.14
2022-12-17T02:06:12.861Z,73.55
2022-12-17T02:08:53.360Z,73.67
2022-12-17T02:11:55.683Z,74.43
2022-12-17T02:14:45.574Z,74.52
2022-12-17T02:17:19.628Z,74.64
2022-12-17T02:20:17.076Z,74.71
2022-12-17T02:23:10.415Z,73.88
2022-12-17T02:26:04.203Z,74.55
2022-12-17T02:28:34.471Z,74.67
2022-12-17T02:31:03.052Z,75.42
2022-12-17T02:33:32.058Z,75.35
2022-12-17T02:36:05.414Z,75.27
2022-12-17T02:38:34.532Z,74.98
2022-12-17T02:41:05.381Z,74.91
2022-12-17T02:43:35.489Z,75.49
2022-12-17T02:46:06.272Z,75.60
2022-12-17T02:48:37.618Z,75.81
2022-12-17T02:51:06.129Z,75.51
2022-12-17T02:53:35.080Z,76.11
2022-12-17T02:56:03.423Z,76.12
2022-12-17T02:58:31.574Z,76.85
2022-12-17T03:00:59.648Z,76.68
2022-12-17T03:03:27.969Z,75.38
2022-12-17T03:05:56.113Z,75.88
2022-12-17T03:08:24.172Z,76.13
2022-12-17T03:10:52.213Z,75.67
2022-12-17T03:13:28.947Z,76.69
2022-12-17T03:16:08.580Z,76.25
2022-12-17T03:18:37.064Z,76.02
2022-12-17T03:21:06.059Z,75.23
2022-12-17T03:23:34.380Z,75.53
2022-12-17T03:26:04.491Z,75.52
2022-12-17T03:28:32.678Z,75.26
2022-12-17T03:31:01.104Z,75.58
2022-12-17T03:33:29.405Z,76.30
2022-12-17T03:35:57.984Z,75.23
2022-12-17T03:38:26.198Z,74.93
2022-12-17T03:40:55.095Z,74.65
2022-12-17T03:43:23.418Z,74.54
2022-12-17T03:45:55.196Z,74.61
2022-12-17T03:48:23.388Z,74.29
2022-12-17T03:50:52.847Z,74.16
2022-12-17T03:53:20.799Z,74.47
2022-12-17T03:55:49.760Z,75.07
2022-12-17T03:58:17.843Z,74.81
2022-12-17T04:00:46.108Z,74.71
2022-12-17T04:03:14.178Z,75.18
2022-12-17T04:05:42.990Z,74.62
2022-12-17T04:08:10.996Z,74.87
2022-12-17T04:10:39.168Z,75.72
2022-12-17T04:13:07.122Z,74.89
2022-12-17T04:15:35.179Z,75.99
2022-12-17T04:18:03.513Z,76.78
2022-12-17T04:20:31.543Z,76.29
2022-12-17T04:22:59.628Z,75.14
2022-12-17T04:25:28.034Z,74.93
2022-12-17T04:27:55.978Z,75.06
2022-12-17T04:30:23.910Z,76.36
2022-12-17T04:32:52.037Z,76.27
2022-12-17T04:35:20.254Z,76.02
2022-12-17T04:37:48.716Z,76.35
2022-12-17T04:40:16.838Z,76.13
2022-12-17T04:42:44.947Z,76.51
2022-12-17T04:45:12.942Z,76.07
2022-12-17T04:47:41.124Z,74.90
2022-12-17T04:50:09.123Z,74.89
2022-12-17T04:52:37.254Z,74.81
2022-12-17T04:55:06.031Z,74.74
2022-12-17T04:57:34.010Z,74.41
2022-12-17T05:00:01.919Z,74.83
2022-12-17T05:02:30.090Z,74.70
2022-12-17T05:04:58.451Z,74.72
2022-12-17T05:07:26.650Z,75.02
2022-12-17T05:09:54.855Z,74.72
2022-12-17T05:12:23.064Z,74.31
2022-12-17T05:14:51.197Z,74.01
2022-12-17T05:17:19.552Z,73.88
2022-12-17T05:19:47.482Z,74.40
2022-12-17T05:22:15.448Z,74.05
2022-12-17T05:24:44.003Z,73.50
2022-12-17T05:27:12.057Z,73.73
2022-12-17T05:29:40.401Z,73.44
2022-12-17T05:32:08.446Z,73.45
2022-12-17T05:34:37.263Z,72.99
2022-12-17T05:37:05.306Z,72.88
2022-12-17T05:39:33.447Z,72.83
2022-12-17T05:42:01.542Z,72.84
2022-12-17T05:44:29.527Z,73.12
2022-12-17T05:46:58.465Z,73.42
2022-12-17T05:49:26.869Z,72.96
2022-12-17T05:51:55.530Z,73.19
2022-12-17T05:54:23.779Z,73.06
2022-12-17T05:56:52.315Z,73.13
2022-12-17T05:59:20.233Z,73.29
2022-12-17T06:01:48.837Z,72.99
2022-12-17T06:04:17.300Z,73.69
2022-12-17T06:06:45.385Z,73.20
2022-12-17T06:09:13.539Z,72.91
2022-12-17T06:11:41.622Z,72.64
2022-12-17T06:14:09.769Z,72.60
2022-12-17T06:16:38.288Z,72.64
2022-12-17T06:19:06.463Z,72.92
2022-12-17T06:21:34.819Z,73.33
2022-12-17T06:24:02.890Z,73.46
2022-12-17T06:26:31.009Z,73.17
2022-12-17T06:28:59.333Z,72.96
2022-12-17T06:31:28.067Z,73.03
2022-12-17T06:33:58.818Z,73.19
2022-12-17T06:36:26.952Z,72.92
2022-12-17T06:38:55.242Z,72.81
2022-12-17T06:41:23.446Z,72.44
2022-12-17T06:43:51.669Z,72.59
2022-12-17T06:46:19.845Z,72.61
2022-12-17T06:48:47.883Z,72.62
2022-12-17T06:51:15.960Z,72.48
2022-12-17T06:53:44.412Z,72.66
2022-12-17T06:56:12.728Z,72.58
2022-12-17T06:58:40.826Z,72.48
2022-12-17T07:01:08.934Z,72.72
2022-12-17T07:03:37.543Z,72.81
2022-12-17T07:06:05.979Z,72.81
2022-12-17T07:08:34.066Z,72.76
2022-12-17T07:11:02.978Z,72.55
2022-12-17T07:13:31.244Z,73.00
2022-12-17T07:15:59.832Z,72.63
2022-12-17T07:18:27.980Z,72.55
2022-12-17T07:20:55.916Z,72.55
2022-12-17T07:23:24.102Z,72.43
2022-12-17T07:25:52.374Z,72.55
2022-12-17T07:28:20.496Z,72.47
2022-12-17T07:30:54.155Z,72.86
2022-12-17T07:33:23.707Z,72.93
2022-12-17T07:35:56.096Z,73.04
2022-12-17T07:38:24.107Z,72.73
2022-12-17T07:40:52.086Z,72.71
2022-12-17T07:43:20.101Z,72.86
2022-12-17T07:45:48.241Z,73.33
2022-12-17T07:48:16.386Z,73.92
2022-12-17T07:50:49.056Z,74.09
2022-12-17T07:53:17.185Z,74.04
2022-12-17T07:55:45.348Z,74.10
2022-12-17T07:58:13.455Z,74.23
2022-12-17T08:00:46.015Z,74.51
2022-12-17T08:03:17.810Z,74.66
2022-12-17T08:05:45.913Z,75.10
2022-12-17T08:08:14.650Z,75.55
2022-12-17T08:10:43.724Z,75.97
2022-12-17T08:13:14.209Z,76.17
2022-12-17T08:15:43.961Z,76.45
2022-12-17T08:18:12.289Z,76.70
2022-12-17T08:20:40.288Z,77.05
2022-12-17T08:23:08.333Z,77.31
2022-12-17T08:25:36.407Z,76.80
2022-12-17T08:28:10.910Z,77.14
2022-12-17T08:30:48.526Z,76.92
2022-12-17T08:33:16.657Z,76.72
2022-12-17T08:35:51.936Z,76.74
2022-12-17T08:38:19.888Z,76.75
2022-12-17T08:40:48.156Z,77.12
2022-12-17T08:43:16.272Z,77.06
2022-12-17T08:45:49.102Z,76.87
2022-12-17T08:48:17.277Z,76.69
2022-12-17T08:50:45.356Z,76.94
2022-12-17T08:53:13.503Z,74.31
2022-12-17T08:55:41.616Z,72.32
2022-12-17T08:58:09.644Z,70.44
2022-12-17T09:00:37.766Z,69.35
2022-12-17T09:03:05.867Z,68.26
2022-12-17T09:05:33.960Z,66.29
2022-12-17T09:08:04.762Z,65.06
2022-12-17T09:10:32.949Z,62.79
2022-12-17T09:13:05.287Z,57.99
2022-12-17T09:15:34.187Z,52.65
2022-12-17T09:18:02.189Z,47.62
2022-12-17T09:20:30.313Z,43.91
2022-12-17T09:22:58.815Z,40.39
2022-12-17T09:25:26.838Z,38.38
2022-12-17T09:27:55.029Z,36.66
2022-12-17T09:30:23.230Z,35.07
2022-12-17T09:32:51.419Z,32.81
2022-12-17T09:35:19.808Z,31.21
2022-12-17T09:37:55.362Z,30.43
2022-12-17T09:40:24.970Z,29.26
2022-12-17T09:43:02.162Z,27.84
2022-12-17T09:45:56.519Z,26.89
2022-12-17T09:48:36.136Z,26.36
2022-12-17T09:51:05.167Z,26.49
2022-12-17T09:53:42.809Z,27.46
2022-12-17T09:56:14.061Z,28.62
2022-12-17T09:58:42.093Z,29.29
2022-12-17T10:01:25.100Z,29.37
2022-12-17T10:03:53.349Z,28.59
2022-12-17T10:06:29.030Z,28.91
2022-12-17T10:09:00.788Z,29.19
2022-12-17T10:11:34.533Z,28.62
2022-12-17T10:14:11.390Z,28.30
2022-12-17T10:16:46.382Z,28.65
2022-12-17T10:19:36.907Z,27.75
2022-12-17T10:22:14.396Z,27.76
2022-12-17T10:24:45.947Z,27.69
2022-12-17T10:27:20.291Z,25.61
2022-12-17T10:29:49.095Z,25.36
2022-12-17T10:32:17.214Z,25.70
2022-12-17T10:34:47.300Z,25.42
2022-12-17T10:37:20.149Z,24.07
2022-12-17T10:39:59.572Z,24.61
2022-12-17T10:42:34.507Z,26.46
2022-12-17T10:45:19.539Z,27.15
2022-12-17T10:47:47.542Z,27.65
2022-12-17T10:50:17.332Z,26.84
2022-12-17T10:52:47.011Z,26.92
2022-12-17T10:55:23.174Z,26.50
2022-12-17T10:57:52.887Z,26.34
2022-12-17T11:00:28.908Z,26.64
2022-12-17T11:02:57.581Z,25.16
2022-12-17T11:05:30.576Z,24.78
2022-12-17T11:08:01.027Z,24.09
2022-12-17T11:10:32.169Z,23.68
2022-12-17T11:13:05.427Z,22.97
2022-12-17T11:15:45.218Z,23.30
2022-12-17T11:18:19.755Z,23.51
2022-12-17T11:20:58.919Z,22.77
2022-12-17T11:23:28.118Z,22.69
2022-12-17T11:26:02.900Z,22.47
2022-12-17T11:28:35.218Z,23.43
2022-12-17T11:31:13.661Z,24.08
2022-12-17T11:33:57.697Z,24.04
2022-12-17T11:36:45.806Z,23.98
2022-12-17T11:39:24.668Z,24.60
2022-12-17T11:42:16.777Z,24.67
2022-12-17T11:45:23.662Z,25.07
2022-12-17T11:48:01.261Z,24.88
2022-12-17T11:50:42.057Z,25.00
2022-12-17T11:53:27.695Z,25.83
2022-12-17T11:56:20.998Z,27.58
2022-12-17T11:58:55.865Z,29.52
2022-12-17T12:01:35.097Z,31.80
2022-12-17T12:04:36.001Z,33.02
2022-12-17T12:07:20.027Z,34.27
2022-12-17T12:09:58.026Z,34.44
2022-12-17T12:12:41.360Z,36.13
2022-12-17T12:15:39.710Z,37.13
2022-12-17T12:18:20.230Z,39.81
2022-12-17T12:21:20.115Z,40.74
2022-12-17T12:23:59.974Z,41.87
2022-12-17T12:26:43.144Z,42.17
2022-12-17T12:29:23.975Z,42.79
2022-12-17T12:32:06.260Z,44.26
2022-12-17T12:34:38.335Z,45.50
2022-12-17T12:37:08.075Z,45.72
2022-12-17T12:39:48.178Z,46.97
2022-12-17T12:42:42.231Z,46.23
2022-12-17T12:45:21.472Z,47.36
2022-12-17T12:47:59.549Z,48.61
2022-12-17T12:50:43.297Z,48.94
2022-12-17T12:53:13.069Z,48.87
2022-12-17T12:55:43.513Z,49.25
2022-12-17T12:58:27.658Z,50.21
2022-12-17T13:00:56.256Z,51.27
2022-12-17T13:03:30.547Z,50.41
2022-12-17T13:06:01.054Z,51.75
2022-12-17T13:08:29.053Z,51.36
2022-12-17T13:10:57.555Z,50.73
2022-12-17T13:13:40.079Z,52.15
2022-12-17T13:16:42.335Z,52.50
2022-12-17T13:19:39.332Z,52.20
2022-12-17T13:22:23.328Z,52.78
2022-12-17T13:24:55.083Z,54.13
2022-12-17T13:27:35.160Z,53.25
2022-12-17T13:30:18.461Z,53.51
2022-12-17T13:33:16.143Z,54.42
2022-12-17T13:36:09.373Z,55.81
2022-12-17T13:39:03.761Z,56.01
2022-12-17T13:41:35.190Z,56.90
2022-12-17T13:44:17.620Z,55.94
2022-12-17T13:46:48.292Z,56.14
2022-12-17T13:49:21.310Z,56.76
2022-12-17T13:52:06.489Z,57.10
2022-12-17T13:54:38.062Z,57.88
2022-12-17T13:57:11.372Z,57.94
2022-12-17T13:59:40.201Z,57.82
2022-12-17T14:02:27.669Z,58.16
2022-12-17T14:05:01.711Z,58.61
2022-12-17T14:07:38.330Z,57.54
2022-12-17T14:10:16.398Z,58.13
2022-12-17T14:12:45.343Z,58.74
2022-12-17T14:15:32.675Z,60.08
2022-12-17T14:18:02.577Z,60.11
2022-12-17T14:20:34.185Z,60.08
2022-12-17T14:23:22.561Z,61.53
2022-12-17T14:25:51.272Z,61.87
2022-12-17T14:28:38.253Z,62.55
2022-12-17T14:31:26.725Z,62.17
2022-12-17T14:34:04.514Z,62.63
2022-12-17T14:36:34.753Z,63.23
2022-12-17T14:39:06.726Z,63.61
2022-12-17T14:41:39.141Z,63.21
2022-12-17T14:44:18.494Z,62.94
2022-12-17T14:47:14.328Z,62.44
2022-12-17T14:49:58.668Z,61.79
2022-12-17T14:52:39.043Z,61.88
2022-12-17T14:55:52.056Z,61.96
2022-12-17T14:58:27.399Z,62.31
2022-12-17T15:01:10.122Z,62.61
2022-12-17T15:03:42.312Z,62.30
2022-12-17T15:06:13.510Z,62.18
2022-12-17T15:08:47.236Z,62.74
2022-12-17T15:11:18.627Z,62.86
2022-12-17T15:13:49.190Z,63.15
2022-12-17T15:16:21.306Z,63.85
2022-12-17T15:18:49.372Z,63.79
2022-12-17T15:21:19.482Z,63.57
2022-12-17T15:23:48.217Z,63.49
2022-12-17T15:26:16.323Z,63.21
2022-12-17T15:28:44.833Z,62.89
2022-12-17T15:31:17.822Z,62.89
2022-12-17T15:33:48.760Z,62.93
2022-12-17T15:36:17.243Z,63.08
2022-12-17T15:38:45.267Z,63.67
2022-12-17T15:41:13.255Z,63.69
2022-12-17T15:43:41.496Z,63.74
2022-12-17T15:46:09.661Z,63.95
2022-12-17T15:48:38.070Z,64.17
2022-12-17T15:51:06.672Z,65.58
2022-12-17T15:53:35.097Z,65.57
2022-12-17T15:56:03.913Z,67.01
2022-12-17T15:58:32.168Z,66.35
2022-12-17T16:01:00.295Z,66.82
2022-12-17T16:03:28.466Z,66.82
2022-12-17T16:05:56.841Z,67.24
2022-12-17T16:08:24.808Z,67.10
2022-12-17T16:10:52.836Z,66.99
2022-12-17T16:13:20.983Z,66.92
2022-12-17T16:16:03.682Z,67.02
2022-12-17T16:18:32.830Z,67.22
2022-12-17T16:21:06.129Z,67.77
2022-12-17T16:23:35.352Z,68.62
2022-12-17T16:26:05.635Z,68.77
2022-12-17T16:28:35.678Z,69.39
2022-12-17T16:31:09.563Z,69.97
2022-12-17T16:33:41.203Z,70.02
2022-12-17T16:36:12.949Z,70.03
2022-12-17T16:38:50.767Z,70.37
2022-12-17T16:41:20.473Z,71.21
2022-12-17T16:43:48.973Z,72.25
2022-12-17T16:46:33.059Z,72.53
2022-12-17T16:49:16.453Z,72.59
2022-12-17T16:51:46.989Z,73.00
2022-12-17T16:54:17.869Z,72.89
2022-12-17T16:56:47.805Z,72.87
2022-12-17T16:59:17.086Z,73.08
2022-12-17T17:01:48.343Z,73.03
2022-12-17T17:04:18.915Z,73.00
2022-12-17T17:06:57.611Z,72.72
2022-12-17T17:09:26.375Z,73.04
2022-12-17T17:11:58.226Z,72.82
2022-12-17T17:14:26.811Z,72.48
2022-12-17T17:16:54.815Z,72.49
2022-12-17T17:19:23.195Z,72.88
2022-12-17T17:21:53.766Z,73.07
2022-12-17T17:24:23.967Z,73.58
2022-12-17T17:26:53.101Z,73.66
2022-12-17T17:29:21.431Z,74.03
2022-12-17T17:34:38.789Z,75.22
2022-12-17T17:37:07.403Z,77.61
2022-12-17T17:39:36.049Z,80.83
2022-12-17T17:42:04.697Z,82.83
2022-12-17T17:44:32.878Z,82.94
2022-12-17T17:47:01.430Z,83.51
2022-12-17T17:49:29.482Z,84.50
2022-12-17T17:52:13.319Z,85.42
2022-12-17T17:54:41.512Z,86.16
2022-12-17T17:57:11.257Z,87.13
2022-12-17T17:59:39.446Z,88.11
2022-12-17T18:02:10.156Z,88.17
2022-12-17T18:04:38.527Z,88.42
2022-12-17T18:07:24.708Z,88.39
2022-12-17T18:09:54.678Z,88.59
2022-12-17T18:12:22.938Z,88.46
2022-12-17T18:15:13.797Z,88.12
2022-12-17T18:17:39.240Z,88.83
2022-12-17T18:20:07.842Z,88.97
2022-12-17T18:22:35.981Z,90.40
2022-12-17T18:25:05.434Z,91.10
2022-12-17T18:27:33.467Z,90.88
2022-12-17T18:30:01.722Z,91.42
2022-12-17T18:32:29.936Z,91.00
2022-12-17T18:34:58.069Z,90.97
2022-12-17T18:37:26.292Z,89.66
2022-12-17T18:39:54.433Z,89.74
2022-12-17T18:42:22.489Z,87.92
2022-12-17T18:44:50.652Z,88.02
2022-12-17T18:47:18.939Z,89.79
2022-12-17T18:49:47.235Z,89.66
2022-12-17T18:52:17.392Z,89.92
2022-12-17T18:54:45.779Z,90.86
2022-12-17T18:57:13.937Z,90.88
2022-12-17T18:59:42.260Z,91.13
2022-12-17T19:02:12.392Z,91.60
2022-12-17T19:04:41.321Z,91.85
2022-12-17T19:07:10.068Z,91.96
2022-12-17T19:09:38.967Z,92.01
2022-12-17T19:12:08.824Z,92.24
2022-12-17T19:14:37.296Z,92.10
2022-12-17T19:17:05.460Z,91.83
2022-12-17T19:19:34.171Z,91.79
2022-12-17T19:22:02.396Z,92.02
2022-12-17T19:24:30.671Z,92.17
2022-12-17T19:26:58.654Z,92.24
2022-12-17T19:29:26.967Z,92.35
2022-12-17T19:31:55.267Z,92.47
2022-12-17T19:34:23.703Z,92.39
2022-12-17T19:36:51.752Z,92.54
2022-12-17T19:39:20.502Z,92.61
2022-12-17T19:41:49.935Z,92.50
2022-12-17T19:44:18.938Z,92.47
2022-12-17T19:46:49.109Z,92.43
2022-12-17T19:49:17.439Z,92.47
2022-12-17T19:51:45.647Z,92.30
2022-12-17T19:54:14.755Z,92.39
2022-12-17T19:56:45.130Z,92.40
2022-12-17T19:59:14.563Z,92.27
2022-12-17T20:01:44.904Z,92.01
2022-12-17T20:04:15.554Z,92.08
2022-12-17T20:06:45.410Z,92.07
2022-12-17T20:09:13.880Z,92.08
2022-12-17T20:11:42.559Z,91.90
2022-12-17T20:14:19.804Z,91.93
2022-12-17T20:16:54.847Z,92.06
2022-12-17T20:19:26.055Z,92.10
2022-12-17T20:21:54.959Z,92.07
2022-12-17T20:24:30.356Z,92.04
2022-12-17T20:27:01.184Z,91.88
2022-12-17T20:29:29.603Z,91.95
2022-12-17T20:31:57.791Z,91.83
2022-12-17T20:34:25.998Z,91.82
2022-12-17T20:36:54.215Z,91.72
2022-12-17T20:39:27.093Z,91.82
2022-12-17T20:41:57.108Z,91.78
2022-12-17T20:44:25.929Z,91.75
2022-12-17T20:46:54.007Z,91.49
2022-12-17T20:49:22.494Z,91.43
2022-12-17T20:51:50.806Z,91.28
2022-12-17T20:54:18.888Z,91.07
2022-12-17T20:56:47.197Z,91.20
2022-12-17T20:59:17.741Z,91.62
2022-12-17T21:01:50.364Z,91.43
2022-12-17T21:04:20.010Z,91.41
2022-12-17T21:06:48.475Z,91.56
2022-12-17T21:09:17.488Z,91.60
2022-12-17T21:11:46.204Z,91.29
2022-12-17T21:14:16.877Z,91.34
2022-12-17T21:16:45.771Z,91.07
2022-12-17T21:19:16.861Z,91.22
2022-12-17T21:21:45.430Z,91.14
2022-12-17T21:24:13.763Z,91.32
2022-12-17T21:26:43.935Z,91.68
2022-12-17T21:29:12.103Z,91.73
2022-12-17T21:31:46.951Z,91.66
2022-12-17T21:34:21.494Z,91.40
2022-12-17T21:36:50.366Z,91.27
2022-12-17T21:39:19.584Z,90.93
2022-12-17T21:41:48.257Z,91.17
2022-12-17T21:44:16.636Z,91.02
2022-12-17T21:46:50.118Z,90.93
2022-12-17T21:49:18.985Z,90.76
2022-12-17T21:51:47.411Z,90.70
2022-12-17T21:54:19.614Z,90.84
2022-12-17T21:56:49.408Z,90.80
2022-12-17T21:59:18.099Z,90.40
2022-12-17T22:01:46.252Z,90.62
2022-12-17T22:04:14.935Z,90.65
2022-12-17T22:06:46.280Z,90.66
2022-12-17T22:09:18.367Z,90.45
2022-12-17T22:11:51.042Z,90.54
2022-12-17T22:14:21.303Z,90.78
2022-12-17T22:16:49.898Z,90.92
2022-12-17T22:19:22.457Z,90.64
2022-12-17T22:21:55.405Z,90.77
2022-12-17T22:24:26.810Z,90.45
2022-12-17T22:26:57.788Z,90.67
2022-12-17T22:29:27.667Z,90.57
2022-12-17T22:31:55.738Z,90.62
2022-12-17T22:35:24.288Z,90.69
2022-12-17T22:40:26.891Z,91.05
2022-12-17T22:44:29.144Z,90.63
2022-12-17T22:44:46.140Z,91.02
2022-12-17T22:45:39.531Z,90.82
2022-12-17T22:48:09.684Z,90.88
2022-12-17T22:50:59.715Z,90.51
2022-12-17T22:53:26.401Z,90.58
2022-12-17T22:55:54.690Z,90.78
2022-12-17T22:58:23.596Z,90.07
2022-12-17T23:00:51.585Z,90.47
2022-12-17T23:03:19.750Z,90.72
2022-12-17T23:05:47.987Z,90.65
2022-12-17T23:08:16.275Z,91.12
